Terminal Aerodrome Forecast
Issued by NWS

Home | Current Version | Previous Version | Text Only | Print | Product List | Glossary On
Versions: 1 2 3 4 5 6 7 8 9 10 11 12 13 14 15 16 17 18 19 20 21 22 23 24 25 26 27 28 29 30
000
FTUS42 KGSP 150100 AAB
TAFAND
TAF AMD
KAND 150101Z 1501/1524 06007KT P6SM OVC019
     FM150900 00000KT 5SM BR OVC015
     FM151300 08003KT P6SM OVC018
     FM151600 15003KT P6SM OVC022
     FM151800 23004KT P6SM BKN040 PROB30 1518/1522 6SM -SHRA OVC040=

USA.gov is the U.S. government's official web portal to all federal, state and local government web resources and services.